Anniston, Alabama
Current Conditions -  °F | °C
As of 6:04 AM on Sunday 23 Nov 2014 (Local Time) from KANB Reporting Station
Overcast Overcast  
Wind Chill: 54°   Ceiling: 1000
Heat Index: 54°   Visibility: 10mi
Dew Point: 52°   Wind: 9mph
Humidity: 93%   Direction: 80°E
Pressure: 29.94"   Gusts: NA
Location:  33.66°N, 85.82°W
Report Text: KANB 231204Z AUTO 08008KT 10SM OVC010 12/11 A2994 RMK AO2 RAE00 P0000 T01220111 $
Loading
Personal Weather Stations






























Interactive Weather Map New forecast layout! Learn more

10-Day Weather Forecast

Advertisements
Track Severe Weather on mobile